createdAt,value
2023-04-18T00:00:23.794Z,638.00
2023-04-18T00:01:23.819Z,639.00
2023-04-18T00:02:23.970Z,647.00
2023-04-18T00:03:23.982Z,647.00
2023-04-18T00:04:24.270Z,640.00
2023-04-18T00:05:23.842Z,641.00
2023-04-18T00:06:23.850Z,636.00
2023-04-18T00:07:23.850Z,632.00
2023-04-18T00:08:23.855Z,632.00
2023-04-18T00:09:23.879Z,639.00
2023-04-18T00:10:23.874Z,634.00
2023-04-18T00:11:23.876Z,634.00
2023-04-18T00:12:23.877Z,639.00
2023-04-18T00:13:23.892Z,636.00
2023-04-18T00:14:23.904Z,638.00
2023-04-18T00:15:23.926Z,634.00
2023-04-18T00:16:23.947Z,639.00
2023-04-18T00:17:23.994Z,638.00
2023-04-18T00:18:23.960Z,633.00
2023-04-18T00:19:23.976Z,634.00
2023-04-18T00:20:23.981Z,629.00
2023-04-18T00:21:23.982Z,630.00
2023-04-18T00:22:23.993Z,631.00
2023-04-18T00:23:24.001Z,629.00
2023-04-18T00:24:24.017Z,633.00
2023-04-18T00:25:24.032Z,635.00
2023-04-18T00:26:24.034Z,627.00
2023-04-18T00:27:24.043Z,632.00
2023-04-18T00:28:24.062Z,628.00
2023-04-18T00:29:24.069Z,630.00
2023-04-18T00:30:24.080Z,626.00
2023-04-18T00:31:24.159Z,627.00
2023-04-18T00:32:24.120Z,628.00
2023-04-18T00:33:24.107Z,631.00
2023-04-18T00:34:24.111Z,634.00
2023-04-18T00:35:24.124Z,634.00
2023-04-18T00:36:24.134Z,629.00
2023-04-18T00:37:24.140Z,626.00
2023-04-18T00:38:24.153Z,627.00
2023-04-18T00:39:24.153Z,627.00
2023-04-18T00:40:24.173Z,628.00
2023-04-18T00:41:24.177Z,629.00
2023-04-18T00:42:24.188Z,620.00
2023-04-18T00:43:24.204Z,620.00
2023-04-18T00:44:24.214Z,617.00
2023-04-18T00:45:24.226Z,626.00
2023-04-18T00:46:24.240Z,625.00
2023-04-18T00:47:24.275Z,621.00
2023-04-18T00:48:24.254Z,629.00
2023-04-18T00:49:24.266Z,623.00
2023-04-18T00:50:24.278Z,625.00
2023-04-18T00:51:24.284Z,620.00
2023-04-18T00:52:24.304Z,625.00
2023-04-18T00:53:24.317Z,617.00
2023-04-18T00:54:24.328Z,619.00
2023-04-18T00:55:24.359Z,617.00
2023-04-18T00:56:24.349Z,623.00
2023-04-18T00:57:24.359Z,624.00
2023-04-18T00:58:24.377Z,620.00
2023-04-18T00:59:24.392Z,619.00
2023-04-18T01:00:24.436Z,624.00
2023-04-18T01:01:24.432Z,616.00
2023-04-18T01:02:24.502Z,624.00
2023-04-18T01:03:24.580Z,617.00
2023-04-18T01:04:24.484Z,621.00
2023-04-18T01:05:24.603Z,620.00
2023-04-18T01:06:24.464Z,622.00
2023-04-18T01:07:24.475Z,616.00
2023-04-18T01:08:24.484Z,620.00
2023-04-18T01:09:24.499Z,612.00
2023-04-18T01:10:24.502Z,620.00
2023-04-18T01:11:24.521Z,612.00
2023-04-18T01:12:24.533Z,615.00
2023-04-18T01:13:24.547Z,613.00
2023-04-18T01:14:24.554Z,616.00
2023-04-18T01:15:24.560Z,608.00
2023-04-18T01:16:24.594Z,613.00
2023-04-18T01:17:24.593Z,611.00
2023-04-18T01:18:24.605Z,614.00
2023-04-18T01:19:24.599Z,610.00
2023-04-18T01:20:24.605Z,613.00
2023-04-18T01:21:24.616Z,606.00
2023-04-18T01:22:24.619Z,608.00
2023-04-18T01:23:24.627Z,607.00
2023-04-18T01:24:24.703Z,607.00
2023-04-18T01:25:24.652Z,608.00
2023-04-18T01:26:24.657Z,605.00
2023-04-18T01:27:24.663Z,604.00
2023-04-18T01:28:24.724Z,605.00
2023-04-18T01:29:24.693Z,613.00
2023-04-18T01:30:24.696Z,604.00
2023-04-18T01:31:24.772Z,604.00
2023-04-18T01:32:24.754Z,605.00
2023-04-18T01:33:24.730Z,608.00
2023-04-18T01:34:24.746Z,598.00
2023-04-18T01:35:24.761Z,599.00
2023-04-18T01:36:24.754Z,603.00
2023-04-18T01:37:24.764Z,609.00
2023-04-18T01:38:24.768Z,603.00
2023-04-18T01:39:24.775Z,604.00
2023-04-18T01:40:24.781Z,598.00
2023-04-18T01:41:24.787Z,602.00
2023-04-18T01:42:24.794Z,609.00
2023-04-18T01:43:24.801Z,600.00
2023-04-18T01:44:24.799Z,598.00
2023-04-18T01:45:24.812Z,595.00
2023-04-18T01:46:24.825Z,598.00
2023-04-18T01:47:24.867Z,595.00
2023-04-18T01:48:24.804Z,596.00
2023-04-18T01:49:24.813Z,597.00
2023-04-18T01:50:24.813Z,597.00
2023-04-18T01:51:24.813Z,604.00
2023-04-18T01:52:24.808Z,595.00
2023-04-18T01:53:25.005Z,598.00
2023-04-18T01:54:24.818Z,596.00
2023-04-18T01:55:24.813Z,593.00
2023-04-18T01:56:24.821Z,597.00
2023-04-18T01:57:24.811Z,597.00
2023-04-18T01:58:24.812Z,586.00
2023-04-18T01:59:24.826Z,595.00
2023-04-18T02:00:24.853Z,586.00
2023-04-18T02:01:24.945Z,589.00
2023-04-18T02:02:24.949Z,590.00
2023-04-18T02:03:24.928Z,591.00
2023-04-18T02:04:24.822Z,592.00
2023-04-18T02:05:24.821Z,593.00
2023-04-18T02:06:24.816Z,591.00
2023-04-18T02:07:24.812Z,591.00
2023-04-18T02:08:24.815Z,586.00
2023-04-18T02:09:24.844Z,594.00
2023-04-18T02:10:24.813Z,589.00
2023-04-18T02:11:24.831Z,588.00
2023-04-18T02:12:24.816Z,586.00
2023-04-18T02:13:24.820Z,590.00
2023-04-18T02:14:24.824Z,585.00
2023-04-18T02:15:24.821Z,583.00
2023-04-18T02:16:24.979Z,584.00
2023-04-18T02:17:24.864Z,587.00
2023-04-18T02:18:24.866Z,586.00
2023-04-18T02:19:24.831Z,575.00
2023-04-18T02:20:24.829Z,585.00
2023-04-18T02:21:24.829Z,581.00
2023-04-18T02:22:24.828Z,584.00
2023-04-18T02:23:24.831Z,577.00
2023-04-18T02:24:24.823Z,579.00
2023-04-18T02:25:24.823Z,582.00
2023-04-18T02:26:24.842Z,582.00
2023-04-18T02:27:24.835Z,583.00
2023-04-18T02:28:24.825Z,581.00
2023-04-18T02:29:24.832Z,581.00
2023-04-18T02:30:24.823Z,579.00
2023-04-18T02:31:24.916Z,584.00
2023-04-18T02:32:24.902Z,576.00
2023-04-18T02:33:24.823Z,579.00
2023-04-18T02:34:24.974Z,577.00
2023-04-18T02:35:24.833Z,581.00
2023-04-18T02:36:24.826Z,576.00
2023-04-18T02:37:24.838Z,576.00
2023-04-18T02:38:24.836Z,578.00
2023-04-18T02:39:24.843Z,581.00
2023-04-18T02:40:24.860Z,581.00
2023-04-18T02:41:24.848Z,570.00
2023-04-18T02:42:24.847Z,577.00
2023-04-18T02:43:24.854Z,575.00
2023-04-18T02:44:24.842Z,577.00
2023-04-18T02:45:24.832Z,570.00
2023-04-18T02:46:24.977Z,575.00
2023-04-18T02:47:24.852Z,568.00
2023-04-18T02:48:24.918Z,571.00
2023-04-18T02:49:24.847Z,572.00
2023-04-18T02:50:24.939Z,573.00
2023-04-18T02:51:24.841Z,571.00
2023-04-18T02:52:24.850Z,568.00
2023-04-18T02:53:24.857Z,569.00
2023-04-18T02:54:24.931Z,569.00
2023-04-18T02:55:24.870Z,572.00
2023-04-18T02:56:24.874Z,570.00
2023-04-18T02:57:24.869Z,571.00
2023-04-18T02:58:24.900Z,572.00
2023-04-18T02:59:24.924Z,570.00
2023-04-18T03:00:24.901Z,572.00
2023-04-18T03:01:24.970Z,572.00
2023-04-18T03:02:25.139Z,571.00
2023-04-18T03:03:25.068Z,572.00
2023-04-18T03:04:25.007Z,562.00
2023-04-18T03:05:24.921Z,565.00
2023-04-18T03:06:24.904Z,559.00
2023-04-18T03:07:24.913Z,569.00
2023-04-18T03:08:24.921Z,567.00
2023-04-18T03:09:24.929Z,558.00
2023-04-18T03:10:24.885Z,565.00
2023-04-18T03:11:24.924Z,560.00
2023-04-18T03:12:24.929Z,563.00
2023-04-18T03:13:24.974Z,560.00
2023-04-18T03:14:24.962Z,566.00
2023-04-18T03:15:24.906Z,568.00
2023-04-18T03:16:25.020Z,567.00
2023-04-18T03:17:24.962Z,564.00
2023-04-18T03:18:25.004Z,564.00
2023-04-18T03:19:24.968Z,556.00
2023-04-18T03:20:24.897Z,565.00
2023-04-18T03:21:24.867Z,559.00
2023-04-18T03:22:24.878Z,562.00
2023-04-18T03:23:24.865Z,558.00
2023-04-18T03:24:24.873Z,561.00
2023-04-18T03:25:24.852Z,560.00
2023-04-18T03:26:24.861Z,559.00
2023-04-18T03:27:24.849Z,553.00
2023-04-18T03:28:24.850Z,559.00
2023-04-18T03:29:24.847Z,560.00
2023-04-18T03:30:24.837Z,555.00
2023-04-18T03:31:24.878Z,560.00
2023-04-18T03:32:24.886Z,561.00
2023-04-18T03:33:24.834Z,560.00
2023-04-18T03:34:24.845Z,558.00
2023-04-18T03:35:24.889Z,558.00
2023-04-18T03:36:24.833Z,556.00
2023-04-18T03:37:24.840Z,555.00
2023-04-18T03:38:24.829Z,559.00
2023-04-18T03:39:24.830Z,556.00
2023-04-18T03:40:24.818Z,552.00
2023-04-18T03:41:24.818Z,552.00
2023-04-18T03:42:24.810Z,548.00
2023-04-18T03:43:24.819Z,555.00
2023-04-18T03:44:24.827Z,554.00
2023-04-18T03:45:24.821Z,549.00
2023-04-18T03:46:24.870Z,552.00
2023-04-18T03:47:24.849Z,550.00
2023-04-18T03:48:24.816Z,556.00
2023-04-18T03:49:24.812Z,555.00
2023-04-18T03:50:24.805Z,553.00
2023-04-18T03:51:24.819Z,555.00
2023-04-18T03:52:24.896Z,553.00
2023-04-18T03:53:24.815Z,549.00
2023-04-18T03:54:24.828Z,553.00
2023-04-18T03:55:24.821Z,548.00
2023-04-18T03:56:24.814Z,549.00
2023-04-18T03:57:24.827Z,546.00
2023-04-18T03:58:24.824Z,550.00
2023-04-18T03:59:24.821Z,543.00
2023-04-18T04:00:24.814Z,547.00
2023-04-18T04:01:24.810Z,543.00
2023-04-18T04:02:24.890Z,544.00
2023-04-18T04:03:24.827Z,545.00
2023-04-18T04:04:24.852Z,556.00
2023-04-18T04:05:24.795Z,544.00
2023-04-18T04:06:24.778Z,551.00
2023-04-18T04:07:24.797Z,542.00
2023-04-18T04:08:26.434Z,551.00
2023-04-18T04:09:24.742Z,554.00
2023-04-18T04:10:24.787Z,544.00
2023-04-18T04:11:24.691Z,544.00
2023-04-18T04:12:24.674Z,549.00
2023-04-18T04:13:24.646Z,547.00
2023-04-18T04:14:24.621Z,543.00
2023-04-18T04:15:24.668Z,547.00
2023-04-18T04:16:24.601Z,543.00
2023-04-18T04:17:24.586Z,543.00
2023-04-18T04:18:24.524Z,546.00
2023-04-18T04:19:24.527Z,544.00
2023-04-18T04:20:24.489Z,537.00
2023-04-18T04:21:24.464Z,544.00
2023-04-18T04:22:24.464Z,542.00
2023-04-18T04:23:24.400Z,540.00
2023-04-18T04:24:24.406Z,541.00
2023-04-18T04:25:24.481Z,545.00
2023-04-18T04:26:24.347Z,533.00
2023-04-18T04:27:24.320Z,537.00
2023-04-18T04:28:24.305Z,536.00
2023-04-18T04:29:24.288Z,542.00
2023-04-18T04:30:24.262Z,543.00
2023-04-18T04:31:24.276Z,540.00
2023-04-18T04:32:24.237Z,535.00
2023-04-18T04:33:24.192Z,541.00
2023-04-18T04:34:24.164Z,544.00
2023-04-18T04:35:24.163Z,536.00
2023-04-18T04:36:24.121Z,536.00
2023-04-18T04:37:24.103Z,537.00
2023-04-18T04:38:24.073Z,537.00
2023-04-18T04:39:24.049Z,536.00
2023-04-18T04:40:24.043Z,541.00
2023-04-18T04:41:24.010Z,536.00
2023-04-18T04:42:23.983Z,537.00
2023-04-18T04:43:23.962Z,538.00
2023-04-18T04:44:23.943Z,538.00
2023-04-18T04:45:23.929Z,534.00
2023-04-18T04:46:23.979Z,537.00
2023-04-18T04:47:23.875Z,539.00
2023-04-18T04:48:23.842Z,535.00
2023-04-18T04:49:23.826Z,537.00
2023-04-18T04:50:23.810Z,533.00
2023-04-18T04:51:23.787Z,534.00
2023-04-18T04:52:23.762Z,537.00
2023-04-18T04:53:23.720Z,529.00
2023-04-18T04:54:23.716Z,534.00
2023-04-18T04:55:23.684Z,539.00
2023-04-18T04:56:23.660Z,528.00
2023-04-18T04:57:23.641Z,528.00
2023-04-18T04:58:23.619Z,528.00
2023-04-18T04:59:23.594Z,535.00
2023-04-18T05:00:23.572Z,528.00
2023-04-18T05:01:23.572Z,533.00
2023-04-18T05:02:23.676Z,532.00
2023-04-18T05:03:23.600Z,536.00
2023-04-18T05:04:23.609Z,533.00
2023-04-18T05:05:23.443Z,527.00
2023-04-18T05:06:23.416Z,528.00
2023-04-18T05:07:23.394Z,525.00
2023-04-18T05:08:23.358Z,529.00
2023-04-18T05:09:23.341Z,524.00
2023-04-18T05:10:23.392Z,527.00
2023-04-18T05:11:23.277Z,526.00
2023-04-18T05:12:23.247Z,526.00
2023-04-18T05:13:23.219Z,527.00
2023-04-18T05:14:23.186Z,525.00
2023-04-18T05:15:23.161Z,527.00
2023-04-18T05:16:23.178Z,529.00
2023-04-18T05:17:23.126Z,521.00
2023-04-18T05:18:23.075Z,523.00
2023-04-18T05:19:23.036Z,525.00
2023-04-18T05:20:23.016Z,530.00
2023-04-18T05:21:22.988Z,523.00
2023-04-18T05:22:22.948Z,526.00
2023-04-18T05:23:22.934Z,529.00
2023-04-18T05:24:23.316Z,533.00
2023-04-18T05:25:23.872Z,533.00
2023-04-18T05:26:22.837Z,537.00
2023-04-18T05:27:22.788Z,547.00
2023-04-18T05:28:22.768Z,562.00
2023-04-18T05:29:22.716Z,601.00
2023-04-18T05:30:22.701Z,616.00
2023-04-18T05:31:22.706Z,630.00
2023-04-18T05:32:22.707Z,673.00
2023-04-18T05:33:22.702Z,723.00
2023-04-18T05:34:22.730Z,793.00
2023-04-18T05:35:22.762Z,832.00
2023-04-18T05:36:22.782Z,925.00
2023-04-18T05:37:22.801Z,947.00
2023-04-18T05:38:22.810Z,999.00
2023-04-18T05:39:22.817Z,1006.00
2023-04-18T05:40:22.832Z,1012.00
2023-04-18T05:41:22.830Z,1031.00
2023-04-18T05:42:22.844Z,1043.00
2023-04-18T05:43:22.822Z,1081.00
2023-04-18T05:44:22.810Z,1117.00
2023-04-18T05:45:22.792Z,1153.00
2023-04-18T05:46:22.811Z,1172.00
2023-04-18T05:47:22.838Z,1162.00
2023-04-18T05:48:22.764Z,1187.00
2023-04-18T05:49:22.778Z,1244.00
2023-04-18T05:50:22.721Z,1264.00
2023-04-18T05:51:23.681Z,1267.00
2023-04-18T05:52:22.635Z,1276.00
2023-04-18T05:53:22.614Z,1286.00
2023-04-18T05:54:22.549Z,1307.00
2023-04-18T05:55:23.228Z,1349.00
2023-04-18T05:56:22.492Z,1388.00
2023-04-18T05:57:22.429Z,1385.00
2023-04-18T05:58:22.381Z,1449.00
2023-04-18T05:59:22.336Z,1499.00
2023-04-18T06:00:22.324Z,1515.00
2023-04-18T06:01:22.245Z,1521.00
2023-04-18T06:02:22.361Z,1625.00
2023-04-18T06:03:22.386Z,1606.00
2023-04-18T06:04:22.227Z,1644.00
2023-04-18T06:05:22.176Z,1687.00
2023-04-18T06:06:22.013Z,1688.00
2023-04-18T06:07:21.952Z,1712.00
2023-04-18T06:08:21.962Z,1737.00
2023-04-18T06:09:21.980Z,1722.00
2023-04-18T06:10:22.005Z,1781.00
2023-04-18T06:11:22.016Z,1784.00
2023-04-18T06:12:22.049Z,1845.00
2023-04-18T06:13:22.056Z,1852.00
2023-04-18T06:14:22.075Z,1876.00
2023-04-18T06:15:23.830Z,1864.00
2023-04-18T06:16:22.122Z,1893.00
2023-04-18T06:17:22.149Z,1891.00
2023-04-18T06:18:22.121Z,1902.00
2023-04-18T06:19:22.135Z,1936.00
2023-04-18T06:20:22.154Z,1907.00
2023-04-18T06:21:22.247Z,1894.00
2023-04-18T06:22:22.211Z,1918.00
2023-04-18T06:23:22.198Z,1917.00
2023-04-18T06:24:22.205Z,1913.00
2023-04-18T06:25:22.816Z,1939.00
2023-04-18T06:26:22.190Z,1910.00
2023-04-18T06:27:31.203Z,1951.00
2023-04-18T06:28:23.132Z,1951.00
2023-04-18T06:29:23.077Z,1952.00
2023-04-18T06:30:22.245Z,1954.00
2023-04-18T06:31:21.992Z,1959.00
2023-04-18T06:32:22.839Z,1959.00
2023-04-18T06:33:21.896Z,1979.00
2023-04-18T06:34:21.855Z,1990.00
2023-04-18T06:35:21.808Z,1975.00
2023-04-18T06:36:21.767Z,1993.00
2023-04-18T06:37:21.709Z,1955.00
2023-04-18T06:38:21.671Z,1985.00
2023-04-18T06:39:21.626Z,1962.00
2023-04-18T06:40:21.576Z,1981.00
2023-04-18T06:41:21.524Z,1973.00
2023-04-18T06:42:22.373Z,1967.00
2023-04-18T06:43:21.444Z,1977.00
2023-04-18T06:44:21.393Z,1968.00
2023-04-18T06:45:21.353Z,1977.00
2023-04-18T06:46:21.421Z,1958.00
2023-04-18T06:47:21.279Z,1968.00
2023-04-18T06:48:21.232Z,1952.00
2023-04-18T06:49:26.255Z,1951.00
2023-04-18T06:50:22.151Z,1953.00
2023-04-18T06:51:21.066Z,1953.00
2023-04-18T06:52:21.036Z,1953.00
2023-04-18T06:53:20.981Z,1952.00
2023-04-18T06:54:20.938Z,1941.00
2023-04-18T06:55:20.895Z,1939.00
2023-04-18T06:56:20.855Z,1944.00
2023-04-18T06:57:20.806Z,1921.00
2023-04-18T06:58:20.759Z,1927.00
2023-04-18T06:59:20.697Z,1914.00
2023-04-18T07:00:20.667Z,1925.00
2023-04-18T07:01:20.648Z,1911.00
2023-04-18T07:02:20.665Z,1894.00
2023-04-18T07:03:20.771Z,1906.00
2023-04-18T07:04:20.616Z,1894.00
2023-04-18T07:05:20.532Z,1888.00
2023-04-18T07:06:20.509Z,1871.00
2023-04-18T07:07:20.505Z,1871.00
2023-04-18T07:08:20.514Z,1877.00
2023-04-18T07:09:20.506Z,1852.00
2023-04-18T07:10:20.578Z,1863.00
2023-04-18T07:11:20.514Z,1851.00
2023-04-18T07:12:20.516Z,1830.00
2023-04-18T07:13:20.532Z,1829.00
2023-04-18T07:14:20.520Z,1828.00
2023-04-18T07:15:20.533Z,1823.00
2023-04-18T07:16:20.613Z,1826.00
2023-04-18T07:17:21.430Z,1813.00
2023-04-18T07:18:30.180Z,1812.00
2023-04-18T07:19:21.483Z,1813.00
2023-04-18T07:20:20.446Z,1816.00
2023-04-18T07:21:20.417Z,1823.00
2023-04-18T07:22:20.372Z,1839.00
2023-04-18T07:23:21.252Z,1879.00
2023-04-18T07:24:20.257Z,1882.00
2023-04-18T07:25:20.218Z,1902.00
2023-04-18T07:26:20.166Z,1900.00
2023-04-18T07:27:20.115Z,1903.00
2023-04-18T07:28:20.060Z,1898.00
2023-04-18T07:29:20.025Z,1906.00
2023-04-18T07:30:20.765Z,1908.00
2023-04-18T07:31:19.944Z,1893.00
2023-04-18T07:32:19.892Z,1917.00
2023-04-18T07:33:19.816Z,1909.00
2023-04-18T07:34:19.778Z,1960.00
2023-04-18T07:35:19.822Z,1992.00
2023-04-18T07:36:19.654Z,1971.00
2023-04-18T07:37:19.614Z,2014.00
2023-04-18T07:38:19.641Z,2003.00
2023-04-18T07:39:19.658Z,2030.00
2023-04-18T07:40:20.332Z,2055.00
2023-04-18T07:41:20.808Z,2057.00
2023-04-18T07:42:19.828Z,2064.00
2023-04-18T07:43:20.791Z,2087.00
2023-04-18T07:44:20.335Z,2113.00
2023-04-18T07:45:19.819Z,2169.00
2023-04-18T07:46:19.872Z,2180.00
2023-04-18T07:47:22.427Z,2191.00
2023-04-18T07:48:19.783Z,2230.00
2023-04-18T07:49:19.688Z,2242.00
2023-04-18T07:50:19.635Z,2269.00
2023-04-18T07:51:19.591Z,2273.00
2023-04-18T07:52:19.520Z,2284.00
2023-04-18T07:53:19.486Z,2297.00
2023-04-18T07:54:19.415Z,2330.00
2023-04-18T07:55:19.370Z,2348.00
2023-04-18T07:56:19.309Z,2347.00
2023-04-18T07:57:19.254Z,2372.00
2023-04-18T07:58:19.204Z,2391.00
2023-04-18T07:59:19.381Z,2413.00
2023-04-18T08:00:19.095Z,2424.00
2023-04-18T08:01:19.044Z,2428.00
2023-04-18T08:02:19.053Z,2450.00
2023-04-18T08:03:19.211Z,2466.00
2023-04-18T08:04:19.024Z,2487.00
2023-04-18T08:05:18.850Z,2493.00
2023-04-18T08:06:18.785Z,2508.00
2023-04-18T08:07:18.701Z,2506.00
2023-04-18T08:08:18.649Z,2532.00
2023-04-18T08:09:18.593Z,2518.00
2023-04-18T08:10:18.549Z,2559.00
2023-04-18T08:11:18.490Z,2540.00
2023-04-18T08:12:18.425Z,2544.00
2023-04-18T08:13:18.382Z,2554.00
2023-04-18T08:14:18.325Z,2557.00
2023-04-18T08:15:18.265Z,2554.00
2023-04-18T08:16:18.237Z,2553.00
2023-04-18T08:17:18.181Z,2562.00
2023-04-18T08:18:18.133Z,2589.00
2023-04-18T08:19:18.034Z,2500.00
2023-04-18T08:20:18.058Z,2071.00
2023-04-18T08:21:17.942Z,1611.00
2023-04-18T08:22:17.887Z,1426.00
2023-04-18T08:23:17.901Z,1367.00
2023-04-18T08:24:17.781Z,1354.00
2023-04-18T08:25:17.745Z,1324.00
2023-04-18T08:26:17.687Z,1302.00
2023-04-18T08:27:17.641Z,1315.00
2023-04-18T08:28:17.564Z,1301.00
2023-04-18T08:29:17.517Z,1368.00
2023-04-18T08:30:17.469Z,1386.00
2023-04-18T08:31:17.441Z,1384.00
2023-04-18T08:32:17.368Z,1443.00
2023-04-18T08:33:17.305Z,1464.00
2023-04-18T08:34:17.262Z,1471.00
2023-04-18T08:35:17.203Z,1514.00
2023-04-18T08:36:17.149Z,1499.00
2023-04-18T08:37:17.086Z,1506.00
2023-04-18T08:38:17.031Z,1516.00
2023-04-18T08:39:17.049Z,1539.00
2023-04-18T08:40:16.929Z,1591.00
2023-04-18T08:41:16.862Z,1608.00
2023-04-18T08:42:16.794Z,1629.00
2023-04-18T08:43:16.750Z,1645.00
2023-04-18T08:44:16.686Z,1709.00
2023-04-18T08:45:16.634Z,1723.00
2023-04-18T08:46:16.611Z,1710.00
2023-04-18T08:47:16.532Z,1720.00
2023-04-18T08:48:16.470Z,1739.00
2023-04-18T08:49:16.732Z,1770.00
2023-04-18T08:50:16.348Z,1780.00
2023-04-18T08:51:16.295Z,1800.00
2023-04-18T08:52:16.246Z,1809.00
2023-04-18T08:53:16.178Z,1822.00
2023-04-18T08:54:16.120Z,1845.00
2023-04-18T08:55:16.108Z,1868.00
2023-04-18T08:56:16.009Z,1899.00
2023-04-18T08:57:15.934Z,1939.00
2023-04-18T08:58:15.876Z,1939.00
2023-04-18T08:59:16.085Z,2052.00
2023-04-18T09:00:15.769Z,2025.00
2023-04-18T09:01:15.729Z,1998.00
2023-04-18T09:02:15.706Z,2017.00
2023-04-18T09:03:15.659Z,2070.00
2023-04-18T09:04:15.553Z,2076.00
2023-04-18T09:05:15.465Z,2141.00
2023-04-18T09:06:15.401Z,2190.00
2023-04-18T09:07:15.330Z,2148.00
2023-04-18T09:08:15.280Z,2152.00
2023-04-18T09:09:15.444Z,2205.00
2023-04-18T09:10:15.152Z,2199.00
2023-04-18T09:11:15.236Z,2206.00
2023-04-18T09:12:15.026Z,2239.00
2023-04-18T09:13:14.975Z,2260.00
2023-04-18T09:14:15.036Z,2300.00
2023-04-18T09:15:14.838Z,2338.00
2023-04-18T09:16:15.403Z,2335.00
2023-04-18T09:17:14.709Z,2104.00
2023-04-18T09:18:14.653Z,1682.00
2023-04-18T09:19:15.054Z,1396.00
2023-04-18T09:20:14.579Z,1150.00
2023-04-18T09:21:14.504Z,929.00
2023-04-18T09:22:14.447Z,742.00
2023-04-18T09:23:14.469Z,638.00
2023-04-18T09:24:14.638Z,723.00
2023-04-18T09:25:14.288Z,767.00
2023-04-18T09:26:14.251Z,817.00
2023-04-18T09:27:14.264Z,859.00
2023-04-18T09:28:14.180Z,870.00
2023-04-18T09:29:14.277Z,891.00
2023-04-18T09:30:14.132Z,930.00
2023-04-18T09:31:14.128Z,977.00
2023-04-18T09:32:14.040Z,1015.00
2023-04-18T09:33:13.994Z,1036.00
2023-04-18T09:34:14.130Z,1042.00
2023-04-18T09:35:13.914Z,1097.00
2023-04-18T09:36:13.861Z,1119.00
2023-04-18T09:37:13.991Z,1167.00
2023-04-18T09:38:13.767Z,1173.00
2023-04-18T09:39:13.881Z,1187.00
2023-04-18T09:40:13.672Z,1237.00
2023-04-18T09:41:13.645Z,1250.00
2023-04-18T09:42:13.580Z,1261.00
2023-04-18T09:43:13.567Z,1289.00
2023-04-18T09:44:15.264Z,1331.00
2023-04-18T09:45:13.419Z,1356.00
2023-04-18T09:46:13.438Z,1358.00
2023-04-18T09:47:13.338Z,1385.00
2023-04-18T09:48:13.270Z,1405.00
2023-04-18T09:49:13.415Z,1415.00
2023-04-18T09:50:13.162Z,1438.00
2023-04-18T09:51:13.122Z,1474.00
2023-04-18T09:52:13.044Z,1506.00
2023-04-18T09:53:13.031Z,1543.00
2023-04-18T09:54:13.235Z,1553.00
2023-04-18T09:55:12.951Z,1563.00
2023-04-18T09:56:13.028Z,1578.00
2023-04-18T09:57:12.923Z,1600.00
2023-04-18T09:58:12.864Z,1619.00
2023-04-18T09:59:13.325Z,1628.00
2023-04-18T10:00:12.838Z,1645.00
2023-04-18T10:01:12.860Z,1658.00
2023-04-18T10:02:12.846Z,1681.00
2023-04-18T10:03:12.957Z,1706.00
2023-04-18T10:04:13.005Z,1743.00
2023-04-18T10:05:12.866Z,1786.00
2023-04-18T10:06:12.831Z,1785.00
2023-04-18T10:07:12.776Z,1795.00
2023-04-18T10:08:12.810Z,1819.00
2023-04-18T10:09:13.165Z,1840.00
2023-04-18T10:10:12.852Z,1920.00
2023-04-18T10:11:12.846Z,1941.00
2023-04-18T10:12:12.871Z,1925.00
2023-04-18T10:13:12.793Z,1937.00
2023-04-18T10:14:13.130Z,1952.00
2023-04-18T10:15:12.950Z,1818.00
2023-04-18T10:16:12.845Z,1580.00
2023-04-18T10:17:12.753Z,1351.00
2023-04-18T10:18:12.741Z,1234.00
2023-04-18T10:19:12.846Z,1188.00
2023-04-18T10:20:12.601Z,971.00
2023-04-18T10:21:12.555Z,984.00
2023-04-18T10:22:12.503Z,1016.00
2023-04-18T10:23:13.325Z,929.00
2023-04-18T10:24:12.576Z,896.00
2023-04-18T10:25:12.360Z,791.00
2023-04-18T10:26:12.319Z,565.00
2023-04-18T10:27:12.266Z,513.00
2023-04-18T10:28:12.205Z,572.00
2023-04-18T10:29:12.433Z,546.00
2023-04-18T10:30:12.124Z,562.00
2023-04-18T10:31:12.219Z,529.00
2023-04-18T10:32:12.821Z,551.00
2023-04-18T10:33:18.512Z,498.00
2023-04-18T10:34:12.965Z,437.00
2023-04-18T10:35:11.914Z,415.00
2023-04-18T10:36:11.860Z,499.00
2023-04-18T10:37:11.796Z,516.00
2023-04-18T10:38:11.751Z,541.00
2023-04-18T10:39:11.696Z,564.00
2023-04-18T10:40:11.622Z,578.00
2023-04-18T10:41:11.571Z,568.00
2023-04-18T10:42:11.541Z,583.00
2023-04-18T10:43:11.450Z,604.00
2023-04-18T10:44:11.452Z,614.00
2023-04-18T10:45:11.329Z,626.00
2023-04-18T10:46:23.942Z,642.00
2023-04-18T10:47:12.319Z,642.00
2023-04-18T10:48:11.193Z,647.00
2023-04-18T10:49:11.281Z,656.00
2023-04-18T10:50:11.053Z,683.00
2023-04-18T10:51:11.004Z,758.00
2023-04-18T10:52:12.326Z,812.00
2023-04-18T10:53:10.908Z,843.00
2023-04-18T10:54:10.971Z,853.00
2023-04-18T10:55:10.954Z,891.00
2023-04-18T10:56:10.944Z,937.00
2023-04-18T10:57:10.938Z,965.00
2023-04-18T10:58:10.951Z,1035.00
2023-04-18T10:59:10.953Z,1052.00
2023-04-18T11:00:10.958Z,1051.00
2023-04-18T11:01:11.011Z,1075.00
2023-04-18T11:02:12.849Z,1110.00
2023-04-18T11:03:11.280Z,1137.00
2023-04-18T11:04:11.122Z,1125.00
2023-04-18T11:05:10.999Z,1128.00
2023-04-18T11:06:11.019Z,1122.00
2023-04-18T11:07:11.037Z,1122.00
2023-04-18T11:08:11.009Z,1116.00
2023-04-18T11:09:11.006Z,1135.00
2023-04-18T11:10:10.970Z,1122.00
2023-04-18T11:11:10.939Z,1140.00
2023-04-18T11:12:10.917Z,1142.00
2023-04-18T11:13:10.866Z,1147.00
2023-04-18T11:14:10.845Z,1156.00
2023-04-18T11:15:10.763Z,1157.00
2023-04-18T11:16:10.761Z,1150.00
2023-04-18T11:17:11.341Z,1154.00
2023-04-18T11:18:10.672Z,1163.00
2023-04-18T11:19:10.586Z,1162.00
2023-04-18T11:20:10.536Z,1156.00
2023-04-18T11:21:10.488Z,1156.00
2023-04-18T11:22:10.451Z,1166.00
2023-04-18T11:23:10.400Z,1163.00
2023-04-18T11:24:10.367Z,1159.00
2023-04-18T11:25:10.334Z,1157.00
2023-04-18T11:26:10.295Z,1164.00
2023-04-18T11:27:10.256Z,1161.00
2023-04-18T11:28:10.244Z,1167.00
2023-04-18T11:29:10.194Z,1165.00
2023-04-18T11:30:10.182Z,1160.00
2023-04-18T11:31:10.144Z,1173.00
2023-04-18T11:32:10.196Z,1164.00
2023-04-18T11:33:10.113Z,1167.00
2023-04-18T11:34:10.086Z,1161.00
2023-04-18T11:35:10.104Z,1157.00
2023-04-18T11:36:10.037Z,1155.00
2023-04-18T11:37:10.012Z,1142.00
2023-04-18T11:38:09.981Z,1144.00
2023-04-18T11:39:09.959Z,1149.00
2023-04-18T11:40:09.932Z,1159.00
2023-04-18T11:41:09.903Z,1133.00
2023-04-18T11:42:09.887Z,1142.00
2023-04-18T11:43:09.881Z,1137.00
2023-04-18T11:44:09.875Z,1136.00
2023-04-18T11:45:09.851Z,1140.00
2023-04-18T11:46:09.879Z,1140.00
2023-04-18T11:47:09.829Z,1133.00
2023-04-18T11:48:09.813Z,1135.00
2023-04-18T11:49:09.772Z,1136.00
2023-04-18T11:50:09.766Z,1135.00
2023-04-18T11:51:09.760Z,1119.00
2023-04-18T11:52:09.716Z,1107.00
2023-04-18T11:53:09.712Z,1102.00
2023-04-18T11:54:09.670Z,1110.00
2023-04-18T11:55:09.634Z,1110.00
2023-04-18T11:56:09.615Z,1104.00
2023-04-18T11:57:09.588Z,1099.00
2023-04-18T11:58:09.546Z,1095.00
2023-04-18T11:59:09.520Z,1091.00
2023-04-18T12:00:09.519Z,1074.00
2023-04-18T12:01:09.463Z,1086.00
2023-04-18T12:02:16.406Z,1085.00
2023-04-18T12:03:13.399Z,1086.00
2023-04-18T12:04:09.549Z,1087.00
2023-04-18T12:05:09.592Z,1089.00
2023-04-18T12:06:09.326Z,1091.00
2023-04-18T12:07:09.312Z,1089.00
2023-04-18T12:08:09.114Z,1086.00
2023-04-18T12:09:09.059Z,1071.00
2023-04-18T12:10:09.002Z,1083.00
2023-04-18T12:11:08.971Z,1082.00
2023-04-18T12:12:08.942Z,1070.00
2023-04-18T12:13:08.974Z,1063.00
2023-04-18T12:14:08.827Z,1057.00
2023-04-18T12:15:08.775Z,1060.00
2023-04-18T12:16:08.721Z,1056.00
2023-04-18T12:17:08.655Z,1054.00